Time;durP1;ratioP1;P1;durP2;ratioP2;P2;SDS_P1;SDS_P2;PMS_P1;PMS_P2;Temp;Humidity;BMP_temperature;BMP_pressure;BME280_temperature;BME280_humidity;BME280_pressure;Samples;Min_cycle;Max_cycle;Signal;HPM_P1;HPM_P2
2021/07/15 00:02:15;;;;;;;6.40;5.85;;;;;;;16.75;82.14;98307.31;3575982;40;20122;-75
2021/07/15 00:04:44;;;;;;;5.82;5.32;;;;;;;16.77;82.05;98313.19;3575451;40;20077;-75
2021/07/15 00:07:16;;;;;;;6.43;5.47;;;;;;;16.73;81.78;98312.06;3575700;40;20018;-75
2021/07/15 00:09:44;;;;;;;5.95;5.35;;;;;;;16.74;81.98;98302.22;3576055;40;20412;-74
2021/07/15 00:12:15;;;;;;;6.95;5.68;;;;;;;16.70;81.85;98303.72;3576328;40;20337;-74
2021/07/15 00:14:43;;;;;;;5.78;5.25;;;;;;;16.68;82.01;98295.94;3575033;40;20022;-74
2021/07/15 00:17:11;;;;;;;5.15;4.75;;;;;;;16.66;81.56;98302.59;3575947;40;20049;-73
2021/07/15 00:19:39;;;;;;;5.63;5.07;;;;;;;16.59;81.97;98292.09;3575042;40;20138;-74
2021/07/15 00:22:06;;;;;;;6.13;5.53;;;;;;;16.59;81.87;98305.44;3575012;40;20057;-74
2021/07/15 00:24:35;;;;;;;6.10;5.50;;;;;;;16.61;82.03;98311.31;3630178;23;21456;-72
2021/07/15 00:27:03;;;;;;;5.53;5.03;;;;;;;16.58;81.92;98314.50;3560269;40;20030;-72
2021/07/15 00:29:31;;;;;;;5.47;4.85;;;;;;;16.59;82.20;98314.22;3560410;40;20379;-72
2021/07/15 00:31:59;;;;;;;4.97;4.57;;;;;;;16.65;82.22;98311.63;3560145;40;20032;-72
2021/07/15 00:34:28;;;;;;;5.82;4.85;;;;;;;16.63;81.46;98306.56;3560240;40;20033;-72
2021/07/15 00:36:56;;;;;;;6.03;5.50;;;;;;;16.63;81.97;98301.22;3559782;40;20062;-72
2021/07/15 00:39:23;;;;;;;7.15;5.97;;;;;;;16.63;82.16;98293.22;3563544;40;20132;-73
2021/07/15 00:41:52;;;;;;;6.68;5.40;;;;;;;16.66;81.73;98298.06;3561294;40;20353;-72
2021/07/15 00:44:21;;;;;;;4.45;4.05;;;;;;;16.64;81.48;98291.34;3561436;40;20042;-71
2021/07/15 00:46:48;;;;;;;3.88;3.58;;;;;;;16.58;81.51;98293.94;3561138;40;20087;-72
2021/07/15 00:49:16;;;;;;;3.90;3.60;;;;;;;16.53;81.62;98293.88;3560345;40;20053;-72
2021/07/15 00:51:43;;;;;;;5.40;4.18;;;;;;;16.50;81.56;98289.03;3561186;40;20441;-72
2021/07/15 00:54:11;;;;;;;4.35;4.05;;;;;;;16.56;81.72;98287.22;3561137;40;20053;-73
2021/07/15 00:56:39;;;;;;;4.40;3.78;;;;;;;16.56;81.74;98282.69;3560707;40;20070;-71
2021/07/15 00:59:08;;;;;;;4.22;3.92;;;;;;;16.61;81.74;98284.63;3568107;40;20132;-72
2021/07/15 01:01:37;;;;;;;4.43;4.03;;;;;;;16.64;81.38;98281.47;3560767;40;20057;-72
2021/07/15 01:04:05;;;;;;;4.25;3.85;;;;;;;16.65;81.60;98290.28;3567840;40;20050;-72
2021/07/15 01:06:35;;;;;;;6.40;4.50;;;;;;;16.67;81.32;98289.00;3560747;40;20049;-72
2021/07/15 01:09:03;;;;;;;4.72;4.32;;;;;;;16.63;81.26;98290.53;3559758;40;20073;-73
2021/07/15 01:11:37;;;;;;;3.70;3.35;;;;;;;16.57;81.27;98292.34;3559996;40;20056;-72
2021/07/15 01:14:12;;;;;;;6.80;3.28;;;;;;;16.52;81.20;98294.91;3561449;40;20103;-73
2021/07/15 01:16:44;;;;;;;3.40;3.10;;;;;;;16.49;81.38;98299.91;3561180;40;20053;-72
2021/07/15 01:20:02;;;;;;;6.03;3.90;;;;;;;16.52;81.19;98304.78;3561245;40;20399;-72
2021/07/15 01:22:35;;;;;;;4.90;4.50;;;;;;;16.55;81.53;98306.97;3542210;40;20432;-73
2021/07/15 01:25:44;;;;;;;6.10;5.28;;;;;;;16.57;81.17;98310.19;3563249;40;20108;-72
2021/07/15 01:28:20;;;;;;;3.95;3.65;;;;;;;16.56;81.16;98314.72;3561645;40;20115;-72
2021/07/15 01:30:52;;;;;;;5.30;4.20;;;;;;;16.60;81.24;98317.72;3561234;40;20423;-72
2021/07/15 01:33:23;;;;;;;5.25;4.75;;;;;;;16.63;81.10;98330.56;3561329;40;20131;-73
2021/07/15 01:35:58;;;;;;;6.13;5.53;;;;;;;16.58;81.04;98322.50;3560558;40;20082;-74
2021/07/15 01:38:32;;;;;;;4.13;3.72;;;;;;;16.46;80.93;98324.44;3560544;40;20443;-73
2021/07/15 01:41:04;;;;;;;4.68;4.28;;;;;;;16.40;81.39;98320.06;3560934;40;20054;-71
2021/07/15 01:43:34;;;;;;;6.15;5.60;;;;;;;16.40;81.15;98320.84;3561435;40;20162;-72
2021/07/15 01:46:04;;;;;;;5.50;5.00;;;;;;;16.42;81.37;98329.44;3561544;40;20120;-71
2021/07/15 01:48:33;;;;;;;4.70;4.30;;;;;;;16.43;81.54;98332.91;3568567;40;20380;-72
2021/07/15 01:51:01;;;;;;;4.88;4.47;;;;;;;16.45;81.17;98322.78;3559902;40;20452;-72
2021/07/15 01:53:29;;;;;;;5.10;4.70;;;;;;;16.48;81.13;98324.97;3567262;40;20053;-72
2021/07/15 01:55:58;;;;;;;5.68;4.90;;;;;;;16.47;80.99;98324.19;3559254;40;20045;-72
2021/07/15 01:58:29;;;;;;;5.55;5.05;;;;;;;16.49;81.16;98329.25;3559580;40;20050;-72
2021/07/15 02:00:59;;;;;;;6.57;4.53;;;;;;;16.53;81.25;98333.06;3559673;40;20041;-71
2021/07/15 02:03:29;;;;;;;5.57;5.07;;;;;;;16.54;80.90;98332.03;3570258;40;20050;-72
2021/07/15 02:05:59;;;;;;;5.50;5.00;;;;;;;16.50;80.54;98345.03;3561379;40;20038;-72
2021/07/15 02:08:28;;;;;;;6.07;5.55;;;;;;;16.50;80.83;98346.91;3560102;40;20064;-71
2021/07/15 02:10:56;;;;;;;5.78;4.97;;;;;;;16.51;80.66;98344.00;3560009;40;20080;-73
2021/07/15 02:13:25;;;;;;;4.28;3.97;;;;;;;16.49;80.72;98351.44;3558996;40;20045;-72
2021/07/15 02:15:54;;;;;;;4.22;3.85;;;;;;;16.49;80.81;98353.28;3560625;40;20061;-71
2021/07/15 02:18:24;;;;;;;4.57;4.20;;;;;;;16.53;80.98;98347.25;3561344;40;20116;-72
2021/07/15 02:20:56;;;;;;;3.83;3.53;;;;;;;16.56;81.07;98345.94;3559671;40;20057;-72
2021/07/15 02:23:24;;;;;;;3.75;3.45;;;;;;;16.59;80.72;98351.59;3563734;40;20050;-72
2021/07/15 02:25:55;;;;;;;4.20;3.85;;;;;;;16.61;80.69;98356.69;3572900;40;20518;-72
2021/07/15 02:28:25;;;;;;;3.72;3.42;;;;;;;16.60;80.96;98358.53;3569436;40;20050;-72
2021/07/15 02:30:55;;;;;;;3.78;3.47;;;;;;;16.61;80.97;98354.00;3560892;40;20307;-72
2021/07/15 02:33:27;;;;;;;4.47;3.90;;;;;;;16.62;80.54;98346.84;3561201;40;20056;-72
2021/07/15 02:36:00;;;;;;;4.00;3.70;;;;;;;16.57;80.62;98342.19;3560843;40;20131;-72
2021/07/15 02:38:31;;;;;;;3.85;3.42;;;;;;;16.58;80.55;98349.19;3560916;40;20077;-72
2021/07/15 02:40:59;;;;;;;4.43;4.07;;;;;;;16.61;80.41;98338.00;3559574;40;20050;-72
2021/07/15 02:43:27;;;;;;;4.85;4.30;;;;;;;16.58;80.76;98336.63;3560694;40;20058;-71
2021/07/15 02:45:56;;;;;;;3.45;3.10;;;;;;;16.53;80.92;98338.41;3560664;40;20049;-72
2021/07/15 02:48:24;;;;;;;4.55;4.18;;;;;;;16.52;80.66;98337.59;3560964;40;20042;-72
2021/07/15 02:50:51;;;;;;;5.30;4.80;;;;;;;16.50;80.67;98339.72;3561666;40;20070;-72
2021/07/15 02:53:21;;;;;;;5.45;4.95;;;;;;;16.53;81.19;98341.91;3559482;40;20026;-72
2021/07/15 02:55:53;;;;;;;5.95;5.35;;;;;;;16.48;81.02;98336.47;3560362;40;20065;-73
2021/07/15 02:58:25;;;;;;;5.32;4.82;;;;;;;16.47;81.13;98336.72;3560136;40;20105;-72
2021/07/15 03:00:56;;;;;;;5.60;5.10;;;;;;;16.44;81.22;98329.19;3560407;40;20143;-72
2021/07/15 03:03:36;;;;;;;5.22;4.75;;;;;;;16.42;81.31;98329.44;3560483;40;20481;-72
2021/07/15 03:06:09;;;;;;;6.15;5.28;;;;;;;16.37;81.49;98329.38;3560638;40;20065;-72
2021/07/15 03:08:44;;;;;;;5.47;4.97;;;;;;;16.32;82.06;98332.72;3560265;40;20037;-72
2021/07/15 03:11:13;;;;;;;5.25;4.75;;;;;;;16.30;82.02;98336.69;3560948;40;20419;-72
2021/07/15 03:13:44;;;;;;;5.10;4.60;;;;;;;16.32;82.08;98342.59;3562862;40;20050;-72
2021/07/15 03:16:14;;;;;;;4.82;3.97;;;;;;;16.31;81.71;98346.31;3562989;40;20053;-72
2021/07/15 03:18:46;;;;;;;5.47;4.97;;;;;;;16.29;82.23;98343.09;3561923;40;20050;-72
2021/07/15 03:21:20;;;;;;;4.83;4.10;;;;;;;16.27;82.10;98350.50;3562140;40;20303;-72
2021/07/15 03:23:50;;;;;;;5.45;4.35;;;;;;;16.26;82.24;98354.22;3562051;40;20050;-72
2021/07/15 03:26:18;;;;;;;4.45;3.90;;;;;;;16.26;82.14;98356.91;3561375;40;20038;-73
2021/07/15 03:28:48;;;;;;;3.88;3.58;;;;;;;16.29;82.19;98351.91;3561694;40;20057;-72
2021/07/15 03:31:17;;;;;;;7.03;5.70;;;;;;;16.35;81.58;98360.78;3561784;40;20413;-72
2021/07/15 03:33:46;;;;;;;3.83;2.88;;;;;;;16.36;81.72;98359.72;3561572;40;20045;-72
2021/07/15 03:36:14;;;;;;;3.25;2.95;;;;;;;16.39;81.65;98356.59;3561826;40;20699;-72
2021/07/15 03:38:43;;;;;;;9.55;8.52;;;;;;;16.40;81.28;98350.19;3561366;40;20053;-72
2021/07/15 03:41:14;;;;;;;9.50;8.23;;;;;;;16.43;81.45;98349.72;3561811;40;20057;-73
2021/07/15 03:43:44;;;;;;;12.98;11.63;;;;;;;16.47;81.08;98352.72;3561854;40;20033;-73
2021/07/15 03:46:13;;;;;;;6.15;4.70;;;;;;;16.47;80.80;98353.53;3569074;40;20038;-73
2021/07/15 03:48:43;;;;;;;3.95;3.63;;;;;;;16.46;81.30;98359.91;3560978;40;20061;-72
2021/07/15 03:51:12;;;;;;;5.22;4.30;;;;;;;16.47;80.91;98350.06;3560758;40;20045;-72
2021/07/15 03:53:43;;;;;;;6.53;4.72;;;;;;;16.47;81.26;98350.84;3561554;40;20480;-72
2021/07/15 03:56:13;;;;;;;5.65;4.80;;;;;;;16.48;80.93;98349.81;3561603;40;20144;-72
2021/07/15 03:58:44;;;;;;;8.10;4.68;;;;;;;16.42;81.03;98355.31;3560677;40;20308;-73
2021/07/15 04:01:13;;;;;;;6.05;4.90;;;;;;;16.38;81.36;98356.84;3561569;40;20058;-72
2021/07/15 04:03:44;;;;;;;3.60;3.30;;;;;;;16.30;80.95;98348.19;3561224;40;20085;-72
2021/07/15 04:06:12;;;;;;;2.88;2.60;;;;;;;16.27;81.65;98355.84;3561657;40;20473;-72
2021/07/15 04:08:43;;;;;;;3.03;2.40;;;;;;;16.32;81.55;98362.06;3561120;40;20081;-73
2021/07/15 04:11:15;;;;;;;4.80;2.50;;;;;;;16.34;81.30;98367.97;3559832;40;20053;-72
2021/07/15 04:13:44;;;;;;;3.42;3.13;;;;;;;16.30;81.29;98377.50;3563069;40;20127;-72
2021/07/15 04:16:19;;;;;;;3.47;3.17;;;;;;;16.25;81.21;98384.63;3562853;40;20303;-72
2021/07/15 04:18:49;;;;;;;4.72;4.28;;;;;;;16.20;81.49;98381.84;3562600;40;20087;-72
2021/07/15 04:21:18;;;;;;;3.30;3.00;;;;;;;16.23;81.54;98384.03;3562335;40;20501;-72
2021/07/15 04:23:47;;;;;;;6.28;5.65;;;;;;;16.35;81.28;98387.47;3561045;40;20084;-72
2021/07/15 04:26:18;;;;;;;6.05;3.33;;;;;;;16.37;81.17;98385.38;3550230;40;20155;-70
2021/07/15 04:28:47;;;;;;;3.90;2.95;;;;;;;16.35;81.04;98390.13;3561754;40;20053;-70
2021/07/15 04:31:30;;;;;;;3.03;2.72;;;;;;;16.37;81.60;98390.72;3562526;40;20040;-71
2021/07/15 04:34:00;;;;;;;3.67;2.50;;;;;;;16.42;81.34;98382.78;3570968;40;20086;-71
2021/07/15 04:36:31;;;;;;;6.18;5.32;;;;;;;16.47;81.19;98393.53;3562067;40;20101;-71
2021/07/15 04:38:59;;;;;;;4.82;3.58;;;;;;;16.44;81.03;98388.69;3563484;40;20045;-71
2021/07/15 04:41:29;;;;;;;5.50;4.47;;;;;;;16.44;80.74;98383.34;3562994;40;20041;-71
2021/07/15 04:43:59;;;;;;;4.63;3.80;;;;;;;16.52;80.89;98380.28;3560434;40;20045;-71
2021/07/15 04:46:27;;;;;;;3.95;3.65;;;;;;;16.56;80.51;98385.94;3561285;40;20322;-71
2021/07/15 04:48:55;;;;;;;3.42;3.00;;;;;;;16.60;80.71;98379.09;3561215;40;20045;-71
2021/07/15 04:51:24;;;;;;;4.80;4.30;;;;;;;16.66;80.21;98388.81;3560272;40;20127;-71
2021/07/15 04:53:54;;;;;;;3.50;3.20;;;;;;;16.65;80.60;98389.03;3561239;40;20060;-71
2021/07/15 04:56:22;;;;;;;3.15;2.85;;;;;;;16.71;80.38;98396.88;3563050;40;20404;-72
2021/07/15 04:58:52;;;;;;;3.47;3.17;;;;;;;16.75;80.02;98399.91;3564993;40;20449;-71
2021/07/15 05:01:20;;;;;;;2.92;2.72;;;;;;;16.70;79.93;98408.63;3563004;40;20334;-70
2021/07/15 05:03:49;;;;;;;2.80;2.60;;;;;;;16.74;79.91;98419.66;3561102;40;20048;-71
2021/07/15 05:06:18;;;;;;;3.22;2.45;;;;;;;16.69;79.69;98425.66;3560561;40;20049;-71
2021/07/15 05:08:46;;;;;;;3.42;3.13;;;;;;;16.68;79.90;98423.25;3560931;40;20144;-71
2021/07/15 05:11:13;;;;;;;3.28;2.97;;;;;;;16.69;79.69;98436.34;3561122;40;20050;-71
2021/07/15 05:13:41;;;;;;;5.72;3.60;;;;;;;16.71;80.04;98436.91;3561075;40;20316;-71
2021/07/15 05:16:10;;;;;;;3.95;3.35;;;;;;;16.75;80.27;98439.94;3559950;40;20065;-70
2021/07/15 05:18:38;;;;;;;5.95;3.58;;;;;;;16.80;79.60;98440.03;3560232;40;20049;-71
2021/07/15 05:21:06;;;;;;;3.55;3.25;;;;;;;16.78;79.93;98442.94;3560468;40;20053;-71
2021/07/15 05:23:34;;;;;;;4.20;3.30;;;;;;;16.84;79.99;98438.50;3560937;40;20151;-70
2021/07/15 05:26:01;;;;;;;4.28;3.88;;;;;;;16.83;79.53;98445.69;3560883;40;20101;-72
2021/07/15 05:28:29;;;;;;;5.18;4.50;;;;;;;16.85;79.88;98445.44;3560752;40;20027;-71
2021/07/15 05:30:57;;;;;;;5.65;4.07;;;;;;;16.82;79.11;98446.75;3561390;40;20049;-71
2021/07/15 05:33:26;;;;;;;4.18;3.78;;;;;;;16.84;80.02;98451.84;3561013;40;20045;-73
2021/07/15 05:35:54;;;;;;;5.35;4.93;;;;;;;16.92;79.71;98454.13;3560860;40;20104;-71
2021/07/15 05:38:21;;;;;;;5.68;4.35;;;;;;;16.86;79.36;98454.25;3560538;40;20056;-71
2021/07/15 05:40:49;;;;;;;5.97;4.40;;;;;;;16.89;79.71;98459.94;3561173;40;20061;-71
2021/07/15 05:43:17;;;;;;;7.40;4.68;;;;;;;16.91;79.83;98465.84;3560874;40;20093;-71
2021/07/15 05:45:45;;;;;;;5.47;4.97;;;;;;;16.93;79.59;98465.59;3560943;40;20131;-71
2021/07/15 05:48:12;;;;;;;7.15;4.75;;;;;;;16.90;79.70;98458.91;3560705;40;20037;-71
2021/07/15 05:50:42;;;;;;;5.10;4.60;;;;;;;16.89;79.84;98457.25;3559765;40;20139;-71
2021/07/15 05:53:09;;;;;;;6.55;5.53;;;;;;;16.90;79.59;98461.56;3560532;40;20360;-71
2021/07/15 05:55:37;;;;;;;5.32;4.80;;;;;;;16.92;79.77;98467.47;3563305;40;20099;-71
2021/07/15 05:58:05;;;;;;;4.78;4.07;;;;;;;16.99;79.52;98459.31;3562728;40;20050;-71
2021/07/15 06:00:35;;;;;;;5.03;4.53;;;;;;;17.09;79.42;98444.25;3563188;40;20046;-71
2021/07/15 06:03:03;;;;;;;8.88;5.35;;;;;;;17.16;79.26;98440.59;3564330;40;20050;-71
2021/07/15 06:05:31;;;;;;;8.23;5.57;;;;;;;17.27;79.06;98435.19;3563452;40;20420;-73
2021/07/15 06:08:01;;;;;;;9.98;5.10;;;;;;;17.40;78.72;98436.69;3562658;40;20089;-71
2021/07/15 06:10:28;;;;;;;7.30;5.10;;;;;;;17.46;78.43;98438.38;3563051;40;20061;-71
2021/07/15 06:12:56;;;;;;;5.57;4.68;;;;;;;17.46;78.40;98437.56;3561641;40;20403;-73
2021/07/15 06:15:24;;;;;;;5.72;5.13;;;;;;;17.45;78.44;98438.63;3560167;40;20111;-73
2021/07/15 06:17:52;;;;;;;5.93;5.22;;;;;;;17.47;78.27;98442.69;3560791;40;20373;-73
2021/07/15 06:20:20;;;;;;;5.65;5.03;;;;;;;17.47;78.20;98439.19;3560289;40;20086;-72
2021/07/15 06:22:48;;;;;;;5.90;5.30;;;;;;;17.54;77.78;98440.63;3560307;40;20041;-72
2021/07/15 06:25:17;;;;;;;7.47;5.40;;;;;;;17.68;77.87;98448.31;3619072;23;20123;-77
2021/07/15 06:27:45;;;;;;;5.47;4.78;;;;;;;17.78;77.44;98445.78;3575396;40;20062;-77
2021/07/15 06:30:14;;;;;;;5.57;4.82;;;;;;;17.88;76.99;98439.75;3575602;40;20045;-75
2021/07/15 06:32:42;;;;;;;4.85;4.30;;;;;;;17.98;76.54;98443.38;3574345;40;20378;-76
2021/07/15 06:35:15;;;;;;;4.47;4.07;;;;;;;18.12;75.88;98443.78;3575079;40;20030;-76
2021/07/15 06:37:48;;;;;;;5.05;4.45;;;;;;;18.15;75.99;98453.19;3574688;40;20054;-76
2021/07/15 06:40:17;;;;;;;5.43;4.93;;;;;;;18.20;76.14;98456.72;3575977;40;20051;-76
2021/07/15 06:42:46;;;;;;;4.47;4.07;;;;;;;18.24;75.95;98457.03;3574590;40;20046;-76
2021/07/15 06:45:14;;;;;;;5.93;5.32;;;;;;;18.35;75.96;98461.44;3574676;40;20544;-75
2021/07/15 06:47:43;;;;;;;5.88;4.00;;;;;;;18.44;75.21;98467.16;3575878;40;20070;-76
2021/07/15 06:50:13;;;;;;;4.32;3.90;;;;;;;18.43;75.54;98465.53;3576796;40;20496;-76
2021/07/15 06:52:40;;;;;;;4.82;3.90;;;;;;;18.45;74.85;98469.59;3575905;40;20028;-75
2021/07/15 06:55:10;;;;;;;4.07;3.30;;;;;;;18.48;74.71;98462.91;3575896;40;20029;-76
2021/07/15 06:57:39;;;;;;;4.65;3.88;;;;;;;18.55;74.62;98460.84;3575907;40;20029;-75
2021/07/15 07:00:11;;;;;;;4.05;3.65;;;;;;;18.50;74.47;98466.97;3575288;40;20357;-76
2021/07/15 07:02:39;;;;;;;4.47;3.42;;;;;;;18.40;74.83;98471.38;3576312;40;20045;-81
2021/07/15 07:05:08;;;;;;;4.70;4.25;;;;;;;18.53;74.79;98462.97;3576008;40;20034;-77
2021/07/15 07:07:36;;;;;;;5.10;4.03;;;;;;;18.54;74.61;98467.28;3576460;40;20026;-76
2021/07/15 07:10:06;;;;;;;4.85;4.40;;;;;;;18.54;74.22;98465.41;3574988;40;20029;-75
2021/07/15 07:12:34;;;;;;;4.10;3.80;;;;;;;18.64;73.82;98459.31;3576488;40;20033;-76
2021/07/15 07:15:04;;;;;;;4.53;3.55;;;;;;;18.71;73.69;98464.53;3576078;40;20053;-77
2021/07/15 07:17:32;;;;;;;3.25;2.95;;;;;;;18.73;73.54;98460.50;3576917;40;20292;-77
2021/07/15 07:19:59;;;;;;;3.58;3.08;;;;;;;18.71;73.45;98461.84;3575538;40;20033;-76
2021/07/15 07:22:27;;;;;;;6.78;6.18;;;;;;;18.63;73.63;98463.06;3575719;40;20410;-77
2021/07/15 07:24:55;;;;;;;3.80;3.50;;;;;;;18.55;74.35;98460.84;3575641;40;20041;-77
2021/07/15 07:27:23;;;;;;;5.18;3.55;;;;;;;18.52;74.32;98462.16;3576732;40;20034;-76
2021/07/15 07:29:50;;;;;;;3.22;3.03;;;;;;;18.46;73.94;98470.41;3576186;40;20026;-75
2021/07/15 07:32:19;;;;;;;3.35;3.05;;;;;;;18.38;74.07;98468.16;3576652;40;20029;-76
2021/07/15 07:34:47;;;;;;;4.90;4.50;;;;;;;18.48;73.65;98466.38;3576710;40;20034;-76
2021/07/15 07:37:15;;;;;;;5.38;4.03;;;;;;;18.66;73.66;98470.59;3575946;40;20037;-76
2021/07/15 07:39:43;;;;;;;3.88;3.50;;;;;;;18.79;73.45;98482.81;3576665;40;20068;-76
2021/07/15 07:42:11;;;;;;;4.43;4.03;;;;;;;18.86;72.45;98482.56;3575285;40;20033;-76
2021/07/15 07:44:48;;;;;;;4.22;3.67;;;;;;;19.03;72.26;98497.50;3576158;40;20058;-75
2021/07/15 07:47:16;;;;;;;4.65;4.25;;;;;;;19.28;71.98;98493.41;3575892;40;20061;-76
2021/07/15 07:49:45;;;;;;;5.57;5.07;;;;;;;19.40;70.92;98495.91;3575271;40;20371;-77
2021/07/15 07:52:13;;;;;;;3.78;3.47;;;;;;;19.43;71.33;98492.69;3576057;40;20062;-76
2021/07/15 07:54:40;;;;;;;3.20;2.90;;;;;;;19.49;70.20;98489.78;3575221;40;20329;-77
2021/07/15 07:57:09;;;;;;;6.72;6.00;;;;;;;19.57;69.88;98485.03;3574766;40;20030;-76
2021/07/15 07:59:38;;;;;;;3.65;2.30;;;;;;;19.60;69.03;98487.19;3575968;40;20061;-76
2021/07/15 08:02:05;;;;;;;3.42;3.03;;;;;;;19.67;68.87;98487.78;3575725;40;20029;-75
2021/07/15 08:04:34;;;;;;;3.30;2.80;;;;;;;19.68;68.67;98487.53;3575771;40;20034;-75
2021/07/15 08:07:08;;;;;;;4.25;3.80;;;;;;;19.79;68.80;98489.19;3575902;40;20053;-75
2021/07/15 08:09:42;;;;;;;;;;;;;;;19.82;68.94;98498.59;3575526;40;20056;-76
2021/07/15 08:12:12;;;;;;;3.63;2.65;;;;;;;19.96;68.57;98490.88;3575568;40;19965;-76
2021/07/15 08:14:40;;;;;;;2.60;2.30;;;;;;;20.05;67.38;98492.03;3574110;40;20033;-76
2021/07/15 08:17:08;;;;;;;4.07;2.38;;;;;;;20.08;67.50;98488.00;3575791;40;20064;-76
2021/07/15 08:19:36;;;;;;;2.97;2.67;;;;;;;20.23;66.64;98490.75;3575177;40;20081;-76
2021/07/15 08:22:06;;;;;;;3.58;2.20;;;;;;;20.38;66.29;98484.63;3576099;40;20298;-76
2021/07/15 08:24:34;;;;;;;4.88;1.98;;;;;;;20.46;63.66;98492.16;3576541;40;20022;-76
2021/07/15 08:27:02;;;;;;;2.22;2.03;;;;;;;20.42;64.68;98491.88;3574375;40;20078;-76
2021/07/15 08:29:30;;;;;;;2.22;2.00;;;;;;;20.53;64.77;98498.94;3576215;40;20326;-76
2021/07/15 08:31:59;;;;;;;3.50;2.10;;;;;;;20.66;63.98;98496.81;3573198;40;20049;-76
2021/07/15 08:34:27;;;;;;;2.20;2.05;;;;;;;20.70;63.55;98501.41;3575604;40;20093;-77
2021/07/15 08:36:55;;;;;;;2.75;2.55;;;;;;;20.55;63.96;98503.22;3575274;40;20032;-77
2021/07/15 08:39:26;;;;;;;2.33;2.13;;;;;;;20.35;64.27;98512.00;3575594;40;20062;-75
2021/07/15 08:41:54;;;;;;;2.20;2.00;;;;;;;20.39;64.34;98503.16;3575284;40;20518;-75
2021/07/15 08:44:23;;;;;;;2.38;2.17;;;;;;;20.37;64.57;98504.47;3574931;40;20395;-75
2021/07/15 08:46:52;;;;;;;3.05;1.92;;;;;;;20.46;64.86;98514.47;3575435;40;20078;-75
2021/07/15 08:49:21;;;;;;;2.95;2.13;;;;;;;20.38;65.69;98511.47;3573865;40;20053;-75
2021/07/15 08:51:49;;;;;;;2.05;1.95;;;;;;;20.31;65.58;98511.72;3574484;40;20327;-75
2021/07/15 08:54:17;;;;;;;2.40;2.20;;;;;;;20.20;66.22;98510.84;3574663;40;20041;-75
2021/07/15 08:56:47;;;;;;;2.45;2.03;;;;;;;20.18;65.99;98510.31;3571695;40;20064;-76
2021/07/15 08:59:17;;;;;;;2.38;2.17;;;;;;;20.17;66.34;98508.72;3573535;40;20029;-75
2021/07/15 09:01:46;;;;;;;4.45;2.25;;;;;;;20.19;66.34;98511.13;3573942;40;20025;-77
2021/07/15 09:04:14;;;;;;;1.98;1.88;;;;;;;20.14;66.53;98517.28;3575442;40;20314;-76
2021/07/15 09:06:43;;;;;;;2.17;2.05;;;;;;;20.14;66.17;98516.47;3575150;40;20410;-77
2021/07/15 09:09:12;;;;;;;2.50;2.30;;;;;;;20.13;66.00;98513.00;3572959;40;20025;-77
2021/07/15 09:11:40;;;;;;;1.80;1.70;;;;;;;20.14;65.90;98519.97;3574222;40;20476;-77
2021/07/15 09:14:14;;;;;;;2.17;1.98;;;;;;;20.13;66.27;98523.72;3574344;40;20084;-77
2021/07/15 09:16:49;;;;;;;2.15;1.95;;;;;;;20.22;66.15;98532.88;3572596;40;20040;-76
2021/07/15 09:19:20;;;;;;;1.95;1.70;;;;;;;20.27;66.34;98538.25;3562610;40;20072;-77
2021/07/15 09:21:48;;;;;;;2.97;1.52;;;;;;;20.20;66.84;98539.56;3564105;40;20026;-76
2021/07/15 09:24:31;;;;;;;2.55;2.35;;;;;;;20.13;67.36;98537.13;3573432;40;20335;-75
2021/07/15 09:27:08;;;;;;;1.90;1.80;;;;;;;20.11;67.29;98539.25;3573680;40;20048;-79
2021/07/15 09:29:38;;;;;;;1.92;1.60;;;;;;;20.11;66.91;98538.47;3572806;40;20368;-77
2021/07/15 09:32:07;;;;;;;2.42;2.22;;;;;;;19.93;67.28;98543.19;3573014;40;20037;-76
2021/07/15 09:34:37;;;;;;;1.83;1.73;;;;;;;19.85;67.15;98550.94;3573289;40;20040;-77
2021/07/15 09:37:13;;;;;;;2.72;1.88;;;;;;;19.77;67.27;98554.91;3573832;40;20137;-75
2021/07/15 09:39:44;;;;;;;3.63;1.83;;;;;;;19.81;66.78;98553.31;3574216;40;20334;-77
2021/07/15 09:42:17;;;;;;;2.17;2.00;;;;;;;19.73;67.70;98559.97;3574100;40;20041;-77
2021/07/15 09:44:48;;;;;;;2.00;1.83;;;;;;;19.67;68.67;98555.63;3573713;40;20037;-77
2021/07/15 09:47:38;;;;;;;2.10;1.80;;;;;;;19.64;69.45;98550.00;3573586;40;20042;-76
2021/07/15 09:50:26;;;;;;;2.08;1.80;;;;;;;19.73;69.89;98545.75;3575255;40;20025;-76
2021/07/15 09:53:15;;;;;;;1.48;1.38;;;;;;;19.93;69.67;98545.88;3574092;40;20383;-75
2021/07/15 09:55:43;;;;;;;2.03;1.90;;;;;;;20.20;69.73;98552.97;3574467;40;20034;-75
2021/07/15 09:58:13;;;;;;;1.88;1.77;;;;;;;20.31;69.76;98556.53;3572928;40;20040;-76
2021/07/15 10:00:44;;;;;;;2.10;1.90;;;;;;;20.52;69.29;98559.06;3574728;40;20324;-76
2021/07/15 10:03:14;;;;;;;3.47;2.67;;;;;;;20.67;69.58;98552.94;3574336;40;20064;-76
2021/07/15 10:05:51;;;;;;;3.20;2.60;;;;;;;20.95;67.83;98543.63;3572688;40;20037;-75
2021/07/15 10:08:26;;;;;;;1.45;1.35;;;;;;;21.15;68.19;98539.34;3573087;40;20032;-75
2021/07/15 10:10:55;;;;;;;1.67;1.58;;;;;;;21.37;67.12;98539.09;3573415;40;20083;-75
2021/07/15 10:13:25;;;;;;;2.53;1.48;;;;;;;21.60;64.98;98543.13;3573199;40;20045;-75
2021/07/15 10:15:54;;;;;;;4.20;2.70;;;;;;;21.79;63.73;98554.13;3571469;40;20299;-75
2021/07/15 10:18:38;;;;;;;1.55;1.45;;;;;;;21.91;62.88;98550.06;3572158;40;20025;-73
2021/07/15 10:21:08;;;;;;;1.40;1.30;;;;;;;21.92;63.18;98553.56;3572669;40;20026;-75
2021/07/15 10:23:38;;;;;;;1.55;1.30;;;;;;;21.99;62.48;98551.38;3572839;40;20075;-76
2021/07/15 10:26:26;;;;;;;1.25;0.90;;;;;;;21.93;61.70;98555.19;3574498;40;20045;-75
2021/07/15 10:28:54;;;;;;;1.05;0.80;;;;;;;21.82;61.40;98550.91;3574655;40;20048;-75
2021/07/15 10:31:25;;;;;;;1.63;1.00;;;;;;;21.72;61.12;98549.03;3574295;40;20046;-74
2021/07/15 10:33:54;;;;;;;1.48;1.20;;;;;;;21.67;61.62;98549.03;3574781;40;20049;-75
2021/07/15 10:36:22;;;;;;;1.00;0.88;;;;;;;21.63;62.17;98551.44;3574167;40;20037;-75
2021/07/15 10:38:52;;;;;;;1.08;1.00;;;;;;;21.41;62.53;98551.72;3574918;40;20033;-74
2021/07/15 10:41:22;;;;;;;1.33;1.23;;;;;;;21.36;63.28;98550.94;3575913;40;20096;-77
2021/07/15 10:43:53;;;;;;;2.80;2.60;;;;;;;21.42;62.70;98552.53;3573773;40;20053;-76
2021/07/15 10:46:30;;;;;;;1.38;1.23;;;;;;;21.25;63.53;98552.78;3575008;40;20395;-75
2021/07/15 10:49:19;;;;;;;1.90;1.80;;;;;;;21.08;64.38;98558.41;3574726;40;20033;-75
2021/07/15 10:51:48;;;;;;;1.65;1.55;;;;;;;21.01;64.66;98555.97;3574386;40;20292;-75
2021/07/15 10:54:17;;;;;;;2.08;1.92;;;;;;;20.78;65.53;98564.53;3575908;40;20036;-73
2021/07/15 10:56:46;;;;;;;1.77;1.60;;;;;;;20.57;66.22;98577.06;3576134;40;20061;-73
2021/07/15 10:59:25;;;;;;;2.33;1.20;;;;;;;20.34;67.05;98582.88;3574971;40;20511;-73
2021/07/15 11:01:55;;;;;;;1.20;1.10;;;;;;;20.14;67.73;98594.28;3575006;40;20296;-74
2021/07/15 11:04:37;;;;;;;2.05;1.80;;;;;;;20.02;68.50;98584.56;3575506;40;20305;-75
2021/07/15 11:07:20;;;;;;;1.77;1.67;;;;;;;19.97;68.68;98589.91;3575346;40;20033;-75
2021/07/15 11:09:49;;;;;;;1.83;1.70;;;;;;;19.93;68.98;98598.72;3573148;40;20435;-76
2021/07/15 11:12:32;;;;;;;2.33;1.85;;;;;;;19.96;69.14;98606.25;3572616;40;20073;-75
2021/07/15 11:15:10;;;;;;;4.20;3.38;;;;;;;20.03;69.92;98590.72;3573289;40;20421;-74
2021/07/15 11:17:47;;;;;;;2.47;2.28;;;;;;;20.19;69.63;98599.69;3575965;40;20036;-74
2021/07/15 11:20:16;;;;;;;1.50;1.40;;;;;;;20.36;69.02;98605.69;3575156;40;20061;-74
2021/07/15 11:22:46;;;;;;;1.70;1.60;;;;;;;20.51;67.63;98602.28;3575868;40;20405;-74
2021/07/15 11:25:19;;;;;;;2.38;1.55;;;;;;;20.71;68.52;98606.94;3575347;40;20395;-74
2021/07/15 11:27:52;;;;;;;4.70;2.85;;;;;;;20.92;68.05;98607.81;3574929;40;20045;-75
2021/07/15 11:30:44;;;;;;;3.08;2.35;;;;;;;21.01;67.45;98600.84;3574425;40;20387;-73
2021/07/15 11:33:48;;;;;;;2.28;2.17;;;;;;;21.30;67.33;98600.34;3574828;40;20379;-75
2021/07/15 11:36:30;;;;;;;3.35;2.22;;;;;;;21.32;66.12;98598.22;3572841;40;20077;-73
2021/07/15 11:39:00;;;;;;;3.25;2.20;;;;;;;21.51;66.94;98604.69;3564698;40;20038;-75
2021/07/15 11:41:46;;;;;;;3.15;1.70;;;;;;;21.83;66.29;98596.34;3573363;40;20422;-72
2021/07/15 11:44:16;;;;;;;2.75;2.05;;;;;;;21.83;61.47;98595.56;3574035;40;20049;-74
2021/07/15 11:46:45;;;;;;;3.20;2.90;;;;;;;21.77;62.55;98602.84;3573052;40;20029;-73
2021/07/15 11:49:26;;;;;;;2.97;2.00;;;;;;;21.76;61.85;98607.41;3573086;40;20022;-73
2021/07/15 11:52:02;;;;;;;3.45;2.20;;;;;;;21.68;62.13;98607.94;3574083;40;20056;-73